createdAt,value
2022-08-17T04:03:07.931Z,22.49
2022-08-17T04:05:36.781Z,22.38
2022-08-17T04:08:05.295Z,22.36
2022-08-17T04:10:33.287Z,22.30
2022-08-17T04:13:06.477Z,22.35
2022-08-17T04:15:34.164Z,22.26
2022-08-17T04:18:02.498Z,22.25
2022-08-17T04:20:31.636Z,22.19
2022-08-17T04:23:02.053Z,22.26
2022-08-17T04:25:32.138Z,22.33
2022-08-17T04:28:00.537Z,22.36
2022-08-17T04:30:31.151Z,22.41
2022-08-17T04:33:07.139Z,22.42
2022-08-17T04:35:44.474Z,22.45
2022-08-17T04:38:15.609Z,22.39
2022-08-17T04:41:03.032Z,22.44
2022-08-17T04:43:32.665Z,22.42
2022-08-17T04:46:02.694Z,22.19
2022-08-17T04:48:36.111Z,22.19
2022-08-17T04:51:10.263Z,22.16
2022-08-17T04:53:39.465Z,22.12
2022-08-17T04:56:07.706Z,22.26
2022-08-17T04:58:39.662Z,22.30
2022-08-17T05:01:08.366Z,22.24
2022-08-17T05:03:36.628Z,22.26
2022-08-17T05:06:04.904Z,22.26
2022-08-17T05:08:33.947Z,22.24
2022-08-17T05:11:03.799Z,22.27
2022-08-17T05:13:31.403Z,22.30
2022-08-17T05:16:00.909Z,22.33
2022-08-17T05:18:30.146Z,22.27
2022-08-17T05:21:01.113Z,22.18
2022-08-17T05:23:34.953Z,22.19
2022-08-17T05:26:26.256Z,22.17
2022-08-17T05:28:58.423Z,22.22
2022-08-17T05:31:28.595Z,22.26
2022-08-17T05:33:56.721Z,22.26
2022-08-17T05:36:41.962Z,22.32
2022-08-17T05:39:16.097Z,22.40
2022-08-17T05:41:46.803Z,22.46
2022-08-17T05:44:14.617Z,22.54
2022-08-17T05:46:48.312Z,22.52
2022-08-17T05:49:19.046Z,22.43
2022-08-17T05:52:20.053Z,22.34
2022-08-17T05:55:04.402Z,22.39
2022-08-17T05:57:51.162Z,22.39
2022-08-17T06:00:29.980Z,22.48
2022-08-17T06:03:16.205Z,22.46
2022-08-17T06:05:55.084Z,22.38
2022-08-17T06:08:31.235Z,22.38
2022-08-17T06:11:10.051Z,22.45
2022-08-17T06:14:05.567Z,22.53
2022-08-17T06:16:37.147Z,22.60
2022-08-17T06:19:10.848Z,22.67
2022-08-17T06:21:43.452Z,22.69
2022-08-17T06:24:25.392Z,22.70
2022-08-17T06:26:54.707Z,22.70
2022-08-17T06:29:37.094Z,22.71
2022-08-17T06:32:05.957Z,22.84
2022-08-17T06:34:34.835Z,22.88
2022-08-17T06:37:15.782Z,22.96
2022-08-17T06:39:54.166Z,22.96
2022-08-17T06:43:04.011Z,23.05
2022-08-17T06:45:25.808Z,23.15
2022-08-17T06:48:00.620Z,23.25
2022-08-17T06:50:35.865Z,23.35
2022-08-17T06:53:11.297Z,23.40
2022-08-17T06:55:46.531Z,23.50
2022-08-17T06:58:16.882Z,23.57
2022-08-17T07:00:48.542Z,23.65
2022-08-17T07:03:27.953Z,23.73
2022-08-17T07:05:59.778Z,23.74
2022-08-17T07:08:35.627Z,23.76
2022-08-17T07:11:07.742Z,23.81
2022-08-17T07:13:44.422Z,23.85
2022-08-17T07:16:25.740Z,23.86
2022-08-17T07:18:55.021Z,23.83
2022-08-17T07:21:41.322Z,23.81
2022-08-17T07:24:29.520Z,23.81
2022-08-17T07:27:07.341Z,23.85
2022-08-17T07:29:40.794Z,23.88
2022-08-17T07:32:12.266Z,23.90
2022-08-17T07:35:11.155Z,23.97
2022-08-17T07:37:43.409Z,24.05
2022-08-17T07:40:22.073Z,24.12
2022-08-17T07:43:05.113Z,24.15
2022-08-17T07:46:08.848Z,24.33
2022-08-17T07:48:39.654Z,24.50
2022-08-17T07:51:17.501Z,24.58
2022-08-17T07:53:45.519Z,24.68
2022-08-17T07:56:34.829Z,24.85
2022-08-17T07:59:15.981Z,24.87
2022-08-17T08:01:48.692Z,24.87
2022-08-17T08:07:28.519Z,24.90
2022-08-17T08:10:08.626Z,24.99
2022-08-17T08:12:38.395Z,25.11
2022-08-17T08:15:18.635Z,25.34
2022-08-17T08:17:50.039Z,25.53
2022-08-17T08:20:51.723Z,25.67
2022-08-17T08:23:18.683Z,25.82
2022-08-17T08:25:57.274Z,25.89
2022-08-17T08:28:30.821Z,26.03
2022-08-17T08:31:06.500Z,26.13
2022-08-17T08:33:45.621Z,26.19
2022-08-17T08:37:12.583Z,26.19
2022-08-17T08:39:27.855Z,26.28
2022-08-17T08:42:07.753Z,26.36
2022-08-17T08:44:59.494Z,26.38
2022-08-17T08:47:51.041Z,26.37
2022-08-17T08:50:36.953Z,26.37
2022-08-17T08:53:21.201Z,26.36
2022-08-17T08:55:54.135Z,26.35
2022-08-17T08:58:42.005Z,26.36
2022-08-17T09:01:22.074Z,26.38
2022-08-17T09:04:20.026Z,26.40
2022-08-17T09:07:00.475Z,26.38
2022-08-17T09:09:43.486Z,26.41
2022-08-17T09:12:21.329Z,26.47
2022-08-17T09:14:59.610Z,26.49
2022-08-17T09:17:37.445Z,26.54
2022-08-17T09:20:28.222Z,26.64
2022-08-17T09:23:02.806Z,26.72
2022-08-17T09:25:43.142Z,26.85
2022-08-17T09:28:19.317Z,26.99
2022-08-17T09:30:50.834Z,27.07
2022-08-17T09:33:26.186Z,27.13
2022-08-17T09:35:59.955Z,27.20
2022-08-17T09:38:33.866Z,27.22
2022-08-17T09:41:12.574Z,27.23
2022-08-17T09:43:47.940Z,27.15
2022-08-17T09:46:20.265Z,27.21
2022-08-17T09:48:55.566Z,27.31
2022-08-17T09:51:31.370Z,27.35
2022-08-17T09:54:20.962Z,27.38
2022-08-17T09:57:25.827Z,27.42
2022-08-17T09:59:58.378Z,27.51
2022-08-17T10:02:44.841Z,27.58
2022-08-17T10:05:17.873Z,27.66
2022-08-17T10:07:55.945Z,27.69
2022-08-17T10:10:30.110Z,27.80
2022-08-17T10:13:06.781Z,27.84
2022-08-17T10:15:50.096Z,27.81
2022-08-17T10:18:33.377Z,27.83
2022-08-17T10:21:21.767Z,27.89
2022-08-17T10:24:11.588Z,27.96
2022-08-17T10:26:56.104Z,28.06
2022-08-17T10:29:49.242Z,28.14
2022-08-17T10:32:26.517Z,28.14
2022-08-17T10:35:30.115Z,28.11
2022-08-17T10:38:26.008Z,28.03
2022-08-17T10:40:58.729Z,28.02
2022-08-17T10:43:38.342Z,28.04
2022-08-17T10:46:31.073Z,28.17
2022-08-17T10:49:25.257Z,28.17
2022-08-17T10:51:55.223Z,28.12
2022-08-17T10:54:38.588Z,28.12
2022-08-17T10:57:37.980Z,28.14
2022-08-17T11:00:36.062Z,28.15
2022-08-17T11:03:17.765Z,28.18
2022-08-17T11:05:59.037Z,28.20
2022-08-17T11:08:46.986Z,28.32
2022-08-17T11:11:39.775Z,28.39
2022-08-17T11:14:23.877Z,28.41
2022-08-17T11:17:09.055Z,28.42
2022-08-17T11:19:55.674Z,28.39
2022-08-17T11:22:43.113Z,28.37
2022-08-17T11:25:16.078Z,28.39
2022-08-17T11:27:45.668Z,28.35
2022-08-17T11:30:16.780Z,28.37
2022-08-17T11:32:53.206Z,28.36
2022-08-17T11:35:38.756Z,28.35
2022-08-17T11:38:17.708Z,28.36
2022-08-17T11:41:10.114Z,28.45
2022-08-17T11:43:57.254Z,28.49
2022-08-17T11:46:57.927Z,28.54
2022-08-17T11:49:55.190Z,28.55
2022-08-17T11:52:46.017Z,28.57
2022-08-17T11:55:50.651Z,28.61
2022-08-17T11:58:38.115Z,28.64
2022-08-17T12:01:08.155Z,28.64
2022-08-17T12:03:53.958Z,28.66
2022-08-17T12:06:31.578Z,28.67
2022-08-17T12:09:08.081Z,28.69
2022-08-17T12:11:55.575Z,28.70
2022-08-17T12:15:08.499Z,28.67
2022-08-17T12:17:39.591Z,28.68
2022-08-17T12:20:15.621Z,28.78
2022-08-17T12:22:56.818Z,28.80
2022-08-17T12:25:35.193Z,28.96
2022-08-17T12:28:06.631Z,29.13
2022-08-17T12:30:38.108Z,29.14
2022-08-17T12:33:25.460Z,29.15
2022-08-17T12:36:00.209Z,29.15
2022-08-17T12:38:32.681Z,29.15
2022-08-17T12:41:25.428Z,29.18
2022-08-17T12:44:03.173Z,29.20
2022-08-17T12:46:34.855Z,29.26
2022-08-17T12:49:14.039Z,29.35
2022-08-17T12:51:46.509Z,29.48
2022-08-17T12:54:29.180Z,29.61
2022-08-17T12:57:02.076Z,29.67
2022-08-17T12:59:33.078Z,29.91
2022-08-17T13:02:01.931Z,29.94
2022-08-17T13:04:29.974Z,29.86
2022-08-17T13:06:59.824Z,29.84
2022-08-17T13:09:40.058Z,29.83
2022-08-17T13:12:09.586Z,29.73
2022-08-17T13:14:37.333Z,29.66
2022-08-17T13:17:11.118Z,29.59
2022-08-17T13:19:49.285Z,29.59
2022-08-17T13:22:18.213Z,29.63
2022-08-17T13:24:54.240Z,29.66
2022-08-17T13:27:26.032Z,29.72
2022-08-17T13:29:57.204Z,29.78
2022-08-17T13:32:41.256Z,29.83
2022-08-17T13:35:50.238Z,29.81
2022-08-17T13:38:40.378Z,29.89
2022-08-17T13:41:08.741Z,29.95
2022-08-17T13:43:45.470Z,29.91
2022-08-17T13:46:20.954Z,29.94
2022-08-17T13:48:59.262Z,30.03
2022-08-17T13:51:36.315Z,30.16
2022-08-17T13:54:07.704Z,30.16
2022-08-17T13:56:41.575Z,30.16
2022-08-17T13:59:14.408Z,30.16
2022-08-17T14:01:47.446Z,30.08
2022-08-17T14:04:23.206Z,30.01
2022-08-17T14:06:54.303Z,29.99
2022-08-17T14:09:24.668Z,29.97
2022-08-17T14:11:54.001Z,29.85
2022-08-17T14:14:35.459Z,29.84
2022-08-17T14:17:12.592Z,29.83
2022-08-17T14:19:41.131Z,29.79
2022-08-17T14:22:15.966Z,29.71
2022-08-17T14:24:45.030Z,29.65
2022-08-17T14:27:13.357Z,29.59
2022-08-17T14:29:42.509Z,29.53
2022-08-17T14:32:18.777Z,29.48
2022-08-17T14:34:49.443Z,29.46
2022-08-17T14:37:18.085Z,29.41
2022-08-17T14:39:46.113Z,29.37
2022-08-17T14:42:15.483Z,29.34
2022-08-17T14:44:44.861Z,29.29
2022-08-17T14:47:15.805Z,29.23
2022-08-17T14:49:47.736Z,29.08
2022-08-17T14:52:21.950Z,28.96
2022-08-17T14:54:51.533Z,28.87
2022-08-17T14:57:25.203Z,28.79
2022-08-17T15:00:03.763Z,28.71
2022-08-17T15:02:31.646Z,28.61
2022-08-17T15:05:01.658Z,28.49
2022-08-17T15:07:31.009Z,28.28
2022-08-17T15:10:00.390Z,27.85
2022-08-17T15:12:33.147Z,27.72
2022-08-17T15:15:04.376Z,27.42
2022-08-17T15:17:54.583Z,27.23
2022-08-17T15:20:23.863Z,27.10
2022-08-17T15:22:54.943Z,27.16
2022-08-17T15:25:23.122Z,27.22
2022-08-17T15:27:51.870Z,27.26
2022-08-17T15:30:22.342Z,27.35
2022-08-17T15:32:54.878Z,27.19
2022-08-17T15:35:27.297Z,27.17
2022-08-17T15:37:57.591Z,27.19
2022-08-17T15:40:25.262Z,27.20
2022-08-17T15:42:53.139Z,26.99
2022-08-17T15:45:26.395Z,26.94
2022-08-17T15:47:54.080Z,26.84
2022-08-17T15:50:22.710Z,26.94
2022-08-17T15:52:56.902Z,26.98
2022-08-17T15:55:25.070Z,26.98
2022-08-17T15:57:53.190Z,27.03
2022-08-17T16:00:28.060Z,27.08
2022-08-17T16:03:46.006Z,26.97
2022-08-17T16:05:46.335Z,26.93
2022-08-17T16:08:20.616Z,26.87
2022-08-17T16:10:49.647Z,26.88
2022-08-17T16:13:19.355Z,26.89
2022-08-17T16:15:57.315Z,26.87
2022-08-17T16:18:32.011Z,26.84
2022-08-17T16:21:23.974Z,26.78
2022-08-17T16:23:58.550Z,26.77
2022-08-17T16:26:27.433Z,26.77
2022-08-17T16:28:56.354Z,26.69
2022-08-17T16:31:27.648Z,26.71
2022-08-17T16:34:16.400Z,26.66
2022-08-17T16:36:55.456Z,26.63
2022-08-17T16:39:27.444Z,26.64
2022-08-17T16:41:57.371Z,26.68
2022-08-17T16:44:32.375Z,26.73
2022-08-17T16:47:01.849Z,26.65
2022-08-17T16:49:36.735Z,26.57
2022-08-17T16:52:12.503Z,26.63
2022-08-17T16:54:43.797Z,26.60
2022-08-17T16:57:12.227Z,26.67
2022-08-17T16:59:42.561Z,26.67
2022-08-17T17:02:15.081Z,26.66
2022-08-17T17:04:51.311Z,26.68
2022-08-17T17:07:34.792Z,26.74
2022-08-17T17:10:08.575Z,26.69
2022-08-17T17:13:02.418Z,26.60
2022-08-17T17:15:33.462Z,26.50
2022-08-17T17:18:07.296Z,26.44
2022-08-17T17:20:45.661Z,26.44
2022-08-17T17:23:29.028Z,26.48
2022-08-17T17:26:10.166Z,26.46
2022-08-17T17:28:44.176Z,26.49
2022-08-17T17:31:17.667Z,26.52
2022-08-17T17:33:50.750Z,26.54
2022-08-17T17:36:25.887Z,26.54
2022-08-17T17:38:59.149Z,26.52
2022-08-17T17:41:34.041Z,26.43
2022-08-17T17:44:06.094Z,26.36
2022-08-17T17:46:39.312Z,26.33
2022-08-17T17:49:11.075Z,26.35
2022-08-17T17:52:07.744Z,26.38
2022-08-17T17:54:51.420Z,26.38
2022-08-17T17:57:29.693Z,26.39
2022-08-17T18:00:04.728Z,26.45
2022-08-17T18:02:51.518Z,26.52
2022-08-17T18:05:49.426Z,26.64
2022-08-17T18:08:34.354Z,26.69
2022-08-17T18:11:23.953Z,26.69
2022-08-17T18:14:06.132Z,26.68
2022-08-17T18:16:35.675Z,26.63
2022-08-17T18:19:03.329Z,26.57
2022-08-17T18:21:39.666Z,26.51
2022-08-17T18:24:10.393Z,26.48
2022-08-17T18:26:46.633Z,26.44
2022-08-17T18:29:31.423Z,26.41
2022-08-17T18:32:23.598Z,26.36
2022-08-17T18:34:56.075Z,26.35
2022-08-17T18:37:46.935Z,26.31
2022-08-17T18:40:35.240Z,26.23
2022-08-17T18:43:24.862Z,26.22
2022-08-17T18:45:54.981Z,26.17
2022-08-17T18:48:32.894Z,26.15
2022-08-17T18:51:06.049Z,26.08
2022-08-17T18:53:40.186Z,26.04
2022-08-17T18:56:24.015Z,26.03
2022-08-17T18:58:58.112Z,25.99
2022-08-17T19:01:46.944Z,25.99
2022-08-17T19:04:34.651Z,25.98
2022-08-17T19:07:11.706Z,25.97
2022-08-17T19:09:45.502Z,25.94
2022-08-17T19:12:27.184Z,25.90
2022-08-17T19:14:57.481Z,25.89
2022-08-17T19:17:33.077Z,25.85
2022-08-17T19:20:06.051Z,25.83
2022-08-17T19:22:45.306Z,25.82
2022-08-17T19:25:19.739Z,25.81
2022-08-17T19:27:57.446Z,25.81
2022-08-17T19:30:26.342Z,25.81
2022-08-17T19:32:55.821Z,25.78
2022-08-17T19:35:28.181Z,25.76
2022-08-17T19:38:05.806Z,25.77
2022-08-17T19:40:58.465Z,25.74
2022-08-17T19:43:36.480Z,25.67
2022-08-17T19:46:15.958Z,25.58
2022-08-17T19:48:52.114Z,25.52
2022-08-17T19:51:28.035Z,25.47
2022-08-17T19:54:06.008Z,25.41
2022-08-17T19:56:47.407Z,25.37
2022-08-17T19:59:25.625Z,25.33
2022-08-17T20:01:58.165Z,25.24
2022-08-17T20:04:36.891Z,25.18
2022-08-17T20:07:10.491Z,25.20
2022-08-17T20:09:41.713Z,25.23
2022-08-17T20:12:14.752Z,25.28
2022-08-17T20:14:55.752Z,25.27
2022-08-17T20:17:26.028Z,25.21
2022-08-17T20:20:04.045Z,25.16
2022-08-17T20:22:46.779Z,25.13
2022-08-17T20:25:29.995Z,25.06
2022-08-17T20:28:05.601Z,25.08
2022-08-17T20:30:38.239Z,25.05
2022-08-17T20:33:08.257Z,25.06
2022-08-17T20:35:41.350Z,24.98
2022-08-17T20:38:11.362Z,24.90
2022-08-17T20:41:02.607Z,24.88
2022-08-17T20:43:51.011Z,24.92
2022-08-17T20:46:50.131Z,24.93
2022-08-17T20:49:27.517Z,24.94
2022-08-17T20:52:07.597Z,24.93
2022-08-17T20:54:49.534Z,24.88
2022-08-17T20:57:47.332Z,24.89
2022-08-17T21:00:47.623Z,24.88
2022-08-17T21:03:49.147Z,24.82
2022-08-17T21:06:23.288Z,24.78
2022-08-17T21:08:55.218Z,24.67
2022-08-17T21:12:02.416Z,24.61
2022-08-17T21:14:44.294Z,24.65
2022-08-17T21:17:40.484Z,24.57
2022-08-17T21:20:23.899Z,24.50
2022-08-17T21:23:05.212Z,24.42
2022-08-17T21:25:52.650Z,24.34
2022-08-17T21:28:34.091Z,24.30
2022-08-17T21:31:08.581Z,24.27
2022-08-17T21:33:39.950Z,24.24
2022-08-17T21:36:27.144Z,24.24
2022-08-17T21:39:03.362Z,24.25
2022-08-17T21:41:34.369Z,24.24
2022-08-17T21:44:12.580Z,24.25
2022-08-17T21:46:43.005Z,24.29
2022-08-17T21:49:18.863Z,24.34
2022-08-17T21:51:50.263Z,24.34
2022-08-17T21:54:27.010Z,24.30
2022-08-17T21:56:55.567Z,24.14
2022-08-17T21:59:27.348Z,23.98
2022-08-17T22:01:57.775Z,23.91
2022-08-17T22:04:30.028Z,23.92
2022-08-17T22:06:59.803Z,23.95
2022-08-17T22:09:31.870Z,23.98
2022-08-17T22:12:05.396Z,24.00
2022-08-17T22:14:51.827Z,24.03
2022-08-17T22:17:24.027Z,24.03
2022-08-17T22:19:56.229Z,24.05
2022-08-17T22:22:29.315Z,24.06
2022-08-17T22:24:59.258Z,24.03
2022-08-17T22:27:48.689Z,23.98
2022-08-17T22:30:29.379Z,23.94
2022-08-17T22:32:57.452Z,23.87
2022-08-17T22:35:43.648Z,23.74
2022-08-17T22:38:33.722Z,23.59
2022-08-17T22:41:21.790Z,23.61
2022-08-17T22:43:50.065Z,23.61
2022-08-17T22:46:21.927Z,23.62
2022-08-17T22:48:52.188Z,23.62
2022-08-17T22:51:23.307Z,23.64
2022-08-17T22:54:10.970Z,23.67
2022-08-17T22:56:56.829Z,23.69
2022-08-17T22:59:43.843Z,23.61
